sensor_id;sensor_type;location;lat;lon;timestamp;pressure;altitude;pressure_sealevel;temperature;humidity
64602;BME280;68371;42.630;23.192;2023-10-31T00:01:27;92571.25;;;12.53;73.57
64602;BME280;68371;42.630;23.192;2023-10-31T00:03:54;92564.44;;;12.52;72.78
64602;BME280;68371;42.630;23.192;2023-10-31T00:06:22;92567.47;;;12.35;72.22
64602;BME280;68371;42.630;23.192;2023-10-31T00:08:49;92561.69;;;12.13;72.36
64602;BME280;68371;42.630;23.192;2023-10-31T00:11:15;92555.66;;;12.13;71.85
64602;BME280;68371;42.630;23.192;2023-10-31T00:13:42;92559.47;;;12.15;70.27
64602;BME280;68371;42.630;23.192;2023-10-31T00:16:09;92536.47;;;11.96;69.96
64602;BME280;68371;42.630;23.192;2023-10-31T00:18:35;92545.78;;;12.10;70.34
64602;BME280;68371;42.630;23.192;2023-10-31T00:21:03;92543.31;;;12.01;70.37
64602;BME280;68371;42.630;23.192;2023-10-31T00:23:32;92544.41;;;11.84;70.20
64602;BME280;68371;42.630;23.192;2023-10-31T00:25:59;92542.25;;;11.74;70.84
64602;BME280;68371;42.630;23.192;2023-10-31T00:28:25;92541.13;;;11.59;71.60
64602;BME280;68371;42.630;23.192;2023-10-31T00:30:52;92538.56;;;11.47;72.42
64602;BME280;68371;42.630;23.192;2023-10-31T00:33:20;92538.81;;;11.41;73.24
64602;BME280;68371;42.630;23.192;2023-10-31T00:35:47;92528.44;;;11.33;73.66
64602;BME280;68371;42.630;23.192;2023-10-31T00:38:13;92525.97;;;11.24;73.87
64602;BME280;68371;42.630;23.192;2023-10-31T00:40:42;92538.16;;;11.16;73.70
64602;BME280;68371;42.630;23.192;2023-10-31T00:43:09;92511.38;;;10.98;73.99
64602;BME280;68371;42.630;23.192;2023-10-31T00:45:36;92530.94;;;11.13;73.88
64602;BME280;68371;42.630;23.192;2023-10-31T00:48:03;92526.72;;;10.96;74.14
64602;BME280;68371;42.630;23.192;2023-10-31T00:50:29;92530.88;;;10.97;73.98
64602;BME280;68371;42.630;23.192;2023-10-31T00:52:56;92531.09;;;10.92;74.17
64602;BME280;68371;42.630;23.192;2023-10-31T00:55:23;92529.59;;;10.91;73.99
64602;BME280;68371;42.630;23.192;2023-10-31T00:57:51;92519.53;;;10.81;74.09
64602;BME280;68371;42.630;23.192;2023-10-31T01:00:18;92522.63;;;10.71;74.77
64602;BME280;68371;42.630;23.192;2023-10-31T01:02:45;92520.03;;;10.58;75.40
64602;BME280;68371;42.630;23.192;2023-10-31T01:05:12;92519.81;;;10.51;75.74
64602;BME280;68371;42.630;23.192;2023-10-31T01:07:39;92513.69;;;10.47;75.97
64602;BME280;68371;42.630;23.192;2023-10-31T01:10:06;92510.41;;;10.38;75.56
64602;BME280;68371;42.630;23.192;2023-10-31T01:12:33;92512.59;;;10.23;75.95
64602;BME280;68371;42.630;23.192;2023-10-31T01:15:01;92513.25;;;10.20;76.64
64602;BME280;68371;42.630;23.192;2023-10-31T01:17:28;92504.72;;;10.11;77.17
64602;BME280;68371;42.630;23.192;2023-10-31T01:19:55;92512.28;;;10.13;76.76
64602;BME280;68371;42.630;23.192;2023-10-31T01:22:22;92510.31;;;10.10;76.94
64602;BME280;68371;42.630;23.192;2023-10-31T01:24:48;92508.44;;;9.98;77.26
64602;BME280;68371;42.630;23.192;2023-10-31T01:27:15;92507.34;;;9.87;77.40
64602;BME280;68371;42.630;23.192;2023-10-31T01:29:42;92505.59;;;9.78;77.92
64602;BME280;68371;42.630;23.192;2023-10-31T01:32:10;92491.59;;;9.74;77.93
64602;BME280;68371;42.630;23.192;2023-10-31T01:34:37;92501.53;;;9.69;78.22
64602;BME280;68371;42.630;23.192;2023-10-31T01:37:04;92488.50;;;9.60;78.29
64602;BME280;68371;42.630;23.192;2023-10-31T01:39:30;92504.25;;;9.60;78.59
64602;BME280;68371;42.630;23.192;2023-10-31T01:41:57;92494.19;;;9.50;78.71
64602;BME280;68371;42.630;23.192;2023-10-31T01:44:24;92493.31;;;9.46;79.12
64602;BME280;68371;42.630;23.192;2023-10-31T01:46:50;92494.59;;;9.39;79.39
64602;BME280;68371;42.630;23.192;2023-10-31T01:49:19;92496.78;;;9.37;79.42
64602;BME280;68371;42.630;23.192;2023-10-31T01:51:45;92493.91;;;9.30;79.90
64602;BME280;68371;42.630;23.192;2023-10-31T01:54:13;92493.94;;;8.97;81.15
64602;BME280;68371;42.630;23.192;2023-10-31T01:56:40;92486.59;;;8.90;82.43
64602;BME280;68371;42.630;23.192;2023-10-31T01:59:08;92487.81;;;8.93;82.70
64602;BME280;68371;42.630;23.192;2023-10-31T02:01:37;92480.34;;;8.82;82.77
64602;BME280;68371;42.630;23.192;2023-10-31T02:04:04;92469.28;;;8.77;83.20
64602;BME280;68371;42.630;23.192;2023-10-31T02:06:32;92465.47;;;8.74;83.55
64602;BME280;68371;42.630;23.192;2023-10-31T02:08:59;92471.59;;;8.78;83.92
64602;BME280;68371;42.630;23.192;2023-10-31T02:11:26;92473.00;;;8.76;83.48
64602;BME280;68371;42.630;23.192;2023-10-31T02:13:52;92478.56;;;8.74;83.70
64602;BME280;68371;42.630;23.192;2023-10-31T02:16:20;92468.09;;;8.74;83.93
64602;BME280;68371;42.630;23.192;2023-10-31T02:18:46;92470.69;;;8.74;83.96
64602;BME280;68371;42.630;23.192;2023-10-31T02:21:13;92470.56;;;8.71;83.58
64602;BME280;68371;42.630;23.192;2023-10-31T02:23:41;92470.84;;;8.78;83.12
64602;BME280;68371;42.630;23.192;2023-10-31T02:26:08;92461.13;;;8.78;83.14
64602;BME280;68371;42.630;23.192;2023-10-31T02:28:35;92468.25;;;8.69;83.21
64602;BME280;68371;42.630;23.192;2023-10-31T02:31:01;92463.47;;;8.71;83.32
64602;BME280;68371;42.630;23.192;2023-10-31T02:33:28;92462.72;;;8.71;83.46
64602;BME280;68371;42.630;23.192;2023-10-31T02:35:55;92462.72;;;8.71;83.45
64602;BME280;68371;42.630;23.192;2023-10-31T02:38:22;92459.28;;;8.58;83.87
64602;BME280;68371;42.630;23.192;2023-10-31T02:40:50;92463.56;;;8.62;84.26
64602;BME280;68371;42.630;23.192;2023-10-31T02:43:17;92465.66;;;8.69;85.25
64602;BME280;68371;42.630;23.192;2023-10-31T02:45:44;92465.25;;;8.79;85.43
64602;BME280;68371;42.630;23.192;2023-10-31T02:48:10;92467.16;;;8.91;83.71
64602;BME280;68371;42.630;23.192;2023-10-31T02:50:37;92408.38;;;8.47;83.46
64602;BME280;68371;42.630;23.192;2023-10-31T02:53:04;92470.88;;;8.90;83.36
64602;BME280;68371;42.630;23.192;2023-10-31T02:55:31;92458.41;;;8.87;83.92
64602;BME280;68371;42.630;23.192;2023-10-31T02:57:59;92473.91;;;8.80;84.06
64602;BME280;68371;42.630;23.192;2023-10-31T03:00:26;92470.31;;;8.85;84.00
64602;BME280;68371;42.630;23.192;2023-10-31T03:02:52;92463.06;;;8.81;84.02
64602;BME280;68371;42.630;23.192;2023-10-31T03:05:19;92468.88;;;8.87;84.48
64602;BME280;68371;42.630;23.192;2023-10-31T03:07:45;92466.53;;;8.94;84.22
64602;BME280;68371;42.630;23.192;2023-10-31T03:10:12;92465.38;;;8.83;84.21
64602;BME280;68371;42.630;23.192;2023-10-31T03:12:39;92469.66;;;8.88;84.37
64602;BME280;68371;42.630;23.192;2023-10-31T03:15:08;92465.75;;;8.94;83.73
64602;BME280;68371;42.630;23.192;2023-10-31T03:17:35;92454.09;;;9.03;82.91
64602;BME280;68371;42.630;23.192;2023-10-31T03:20:02;92441.94;;;8.87;83.32
64602;BME280;68371;42.630;23.192;2023-10-31T03:22:29;92447.94;;;8.87;83.75
64602;BME280;68371;42.630;23.192;2023-10-31T03:24:55;92431.69;;;8.94;83.67
64602;BME280;68371;42.630;23.192;2023-10-31T03:27:23;92438.38;;;9.03;83.77
64602;BME280;68371;42.630;23.192;2023-10-31T03:29:49;92431.50;;;8.99;83.60
64602;BME280;68371;42.630;23.192;2023-10-31T03:32:17;92426.81;;;9.05;83.26
64602;BME280;68371;42.630;23.192;2023-10-31T03:34:44;92404.84;;;8.97;83.53
64602;BME280;68371;42.630;23.192;2023-10-31T03:37:11;92406.16;;;9.03;83.02
64602;BME280;68371;42.630;23.192;2023-10-31T03:39:37;92360.47;;;8.79;82.55
64602;BME280;68371;42.630;23.192;2023-10-31T03:42:04;92417.13;;;9.42;81.01
64602;BME280;68371;42.630;23.192;2023-10-31T03:44:31;92404.47;;;9.69;79.42
64602;BME280;68371;42.630;23.192;2023-10-31T03:46:58;92410.81;;;9.92;78.04
64602;BME280;68371;42.630;23.192;2023-10-31T03:49:26;92398.84;;;10.07;77.58
64602;BME280;68371;42.630;23.192;2023-10-31T03:51:52;92408.56;;;10.31;77.15
64602;BME280;68371;42.630;23.192;2023-10-31T03:54:20;92421.66;;;10.43;76.83
64602;BME280;68371;42.630;23.192;2023-10-31T03:56:47;92421.56;;;10.40;75.90
64602;BME280;68371;42.630;23.192;2023-10-31T03:59:14;92399.25;;;10.21;75.83
64602;BME280;68371;42.630;23.192;2023-10-31T04:01:40;92421.03;;;10.34;75.72
64602;BME280;68371;42.630;23.192;2023-10-31T04:04:07;92410.19;;;10.23;74.88
64602;BME280;68371;42.630;23.192;2023-10-31T04:06:35;92419.19;;;10.22;75.23
64602;BME280;68371;42.630;23.192;2023-10-31T04:09:05;92369.59;;;9.80;76.04
64602;BME280;68371;42.630;23.192;2023-10-31T04:11:31;92410.47;;;9.94;78.54
64602;BME280;68371;42.630;23.192;2023-10-31T04:13:58;92410.81;;;9.92;78.90
64602;BME280;68371;42.630;23.192;2023-10-31T04:16:25;92400.31;;;9.80;79.28
64602;BME280;68371;42.630;23.192;2023-10-31T04:18:51;92401.06;;;9.80;79.79
64602;BME280;68371;42.630;23.192;2023-10-31T04:21:18;92398.22;;;9.61;79.96
64602;BME280;68371;42.630;23.192;2023-10-31T04:23:46;92402.09;;;9.51;80.27
64602;BME280;68371;42.630;23.192;2023-10-31T04:26:13;92411.16;;;9.54;80.08
64602;BME280;68371;42.630;23.192;2023-10-31T04:28:41;92397.28;;;9.41;80.58
64602;BME280;68371;42.630;23.192;2023-10-31T04:31:07;92398.16;;;9.45;80.08
64602;BME280;68371;42.630;23.192;2023-10-31T04:33:34;92395.72;;;9.40;79.86
64602;BME280;68371;42.630;23.192;2023-10-31T04:36:01;92401.53;;;9.33;79.48
64602;BME280;68371;42.630;23.192;2023-10-31T04:38:27;92396.69;;;9.23;79.77
64602;BME280;68371;42.630;23.192;2023-10-31T04:40:56;92401.50;;;9.21;79.53
64602;BME280;68371;42.630;23.192;2023-10-31T04:43:22;92409.78;;;8.98;80.33
64602;BME280;68371;42.630;23.192;2023-10-31T04:45:49;92407.63;;;8.79;80.43
64602;BME280;68371;42.630;23.192;2023-10-31T04:48:16;92419.88;;;8.88;80.51
64602;BME280;68371;42.630;23.192;2023-10-31T04:50:42;92417.34;;;8.79;80.35
64602;BME280;68371;42.630;23.192;2023-10-31T04:53:09;92421.00;;;8.66;80.58
64602;BME280;68371;42.630;23.192;2023-10-31T04:55:36;92412.53;;;8.81;80.51
64602;BME280;68371;42.630;23.192;2023-10-31T04:58:04;92417.88;;;9.18;79.02
64602;BME280;68371;42.630;23.192;2023-10-31T05:00:30;92415.63;;;9.66;77.49
64602;BME280;68371;42.630;23.192;2023-10-31T05:02:57;92410.72;;;10.29;74.65
64602;BME280;68371;42.630;23.192;2023-10-31T05:05:25;92411.91;;;10.44;73.53
64602;BME280;68371;42.630;23.192;2023-10-31T05:07:52;92349.75;;;10.48;72.06
64602;BME280;68371;42.630;23.192;2023-10-31T05:10:19;92408.91;;;11.30;69.13
64602;BME280;68371;42.630;23.192;2023-10-31T05:12:45;92410.84;;;11.33;70.40
64602;BME280;68371;42.630;23.192;2023-10-31T05:15:14;92390.72;;;11.25;69.01
64602;BME280;68371;42.630;23.192;2023-10-31T05:17:40;92409.81;;;11.70;67.20
64602;BME280;68371;42.630;23.192;2023-10-31T05:20:08;92414.75;;;12.03;64.84
64602;BME280;68371;42.630;23.192;2023-10-31T05:22:36;92413.50;;;12.16;64.58
64602;BME280;68371;42.630;23.192;2023-10-31T05:25:03;92411.66;;;12.17;65.74
64602;BME280;68371;42.630;23.192;2023-10-31T05:27:30;92421.06;;;12.18;64.83
64602;BME280;68371;42.630;23.192;2023-10-31T05:29:57;92418.06;;;12.35;64.12
64602;BME280;68371;42.630;23.192;2023-10-31T05:32:26;92412.38;;;12.53;63.54
64602;BME280;68371;42.630;23.192;2023-10-31T05:34:53;92419.31;;;12.61;63.49
64602;BME280;68371;42.630;23.192;2023-10-31T05:37:19;92419.38;;;12.65;62.76
64602;BME280;68371;42.630;23.192;2023-10-31T05:39:46;92419.47;;;12.68;61.93
64602;BME280;68371;42.630;23.192;2023-10-31T05:42:13;92416.41;;;12.86;60.36
64602;BME280;68371;42.630;23.192;2023-10-31T05:44:39;92414.19;;;12.88;61.90
64602;BME280;68371;42.630;23.192;2023-10-31T05:47:06;92419.50;;;12.91;61.46
64602;BME280;68371;42.630;23.192;2023-10-31T05:49:34;92430.78;;;12.88;61.83
64602;BME280;68371;42.630;23.192;2023-10-31T05:52:01;92427.78;;;12.90;61.15
64602;BME280;68371;42.630;23.192;2023-10-31T05:54:28;92429.38;;;12.94;61.07
64602;BME280;68371;42.630;23.192;2023-10-31T05:56:54;92434.75;;;13.01;60.80
64602;BME280;68371;42.630;23.192;2023-10-31T05:59:21;92440.31;;;13.16;59.67
64602;BME280;68371;42.630;23.192;2023-10-31T06:01:47;92441.91;;;13.20;58.97
64602;BME280;68371;42.630;23.192;2023-10-31T06:04:15;92458.09;;;13.38;58.18
64602;BME280;68371;42.630;23.192;2023-10-31T06:06:43;92452.84;;;13.42;58.23
64602;BME280;68371;42.630;23.192;2023-10-31T06:09:10;92452.84;;;13.42;58.23
64602;BME280;68371;42.630;23.192;2023-10-31T06:11:40;92457.91;;;13.51;57.74
64602;BME280;68371;42.630;23.192;2023-10-31T06:14:07;92442.00;;;13.70;57.00
64602;BME280;68371;42.630;23.192;2023-10-31T06:16:33;92441.06;;;13.82;56.82
64602;BME280;68371;42.630;23.192;2023-10-31T06:19:05;92441.63;;;13.95;56.86
64602;BME280;68371;42.630;23.192;2023-10-31T06:21:32;92442.91;;;14.05;56.37
64602;BME280;68371;42.630;23.192;2023-10-31T06:24:00;92449.72;;;14.32;52.24
64602;BME280;68371;42.630;23.192;2023-10-31T06:26:27;92434.53;;;14.52;49.41
64602;BME280;68371;42.630;23.192;2023-10-31T06:28:54;92457.66;;;14.59;51.95
64602;BME280;68371;42.630;23.192;2023-10-31T06:31:21;92451.44;;;14.74;50.12
64602;BME280;68371;42.630;23.192;2023-10-31T06:33:47;92448.06;;;14.77;50.16
64602;BME280;68371;42.630;23.192;2023-10-31T06:36:14;92455.47;;;14.95;48.81
64602;BME280;68371;42.630;23.192;2023-10-31T06:38:41;92450.41;;;15.16;47.22
64602;BME280;68371;42.630;23.192;2023-10-31T06:41:09;92434.25;;;15.25;46.28
64602;BME280;68371;42.630;23.192;2023-10-31T06:43:36;92433.88;;;15.27;46.90
64602;BME280;68371;42.630;23.192;2023-10-31T06:46:03;92444.91;;;15.32;47.01
64602;BME280;68371;42.630;23.192;2023-10-31T06:48:31;92434.03;;;15.45;45.34
64602;BME280;68371;42.630;23.192;2023-10-31T06:50:57;92428.47;;;15.57;46.23
64602;BME280;68371;42.630;23.192;2023-10-31T06:53:24;92436.50;;;15.64;44.45
64602;BME280;68371;42.630;23.192;2023-10-31T06:55:51;92431.66;;;15.73;45.08
64602;BME280;68371;42.630;23.192;2023-10-31T06:58:19;92441.84;;;15.71;43.01
64602;BME280;68371;42.630;23.192;2023-10-31T07:00:45;92444.28;;;15.87;43.58
64602;BME280;68371;42.630;23.192;2023-10-31T07:03:12;92442.06;;;15.93;42.72
64602;BME280;68371;42.630;23.192;2023-10-31T07:05:41;92431.41;;;15.86;43.29
64602;BME280;68371;42.630;23.192;2023-10-31T07:08:07;92430.41;;;16.05;43.59
64602;BME280;68371;42.630;23.192;2023-10-31T07:10:34;92424.06;;;16.16;42.25
64602;BME280;68371;42.630;23.192;2023-10-31T07:13:01;92419.53;;;16.20;42.90
64602;BME280;68371;42.630;23.192;2023-10-31T07:15:29;92412.31;;;16.17;42.39
64602;BME280;68371;42.630;23.192;2023-10-31T07:17:56;92400.63;;;16.26;40.97
64602;BME280;68371;42.630;23.192;2023-10-31T07:20:22;92416.22;;;16.34;39.99
64602;BME280;68371;42.630;23.192;2023-10-31T07:22:49;92420.41;;;16.39;41.36
64602;BME280;68371;42.630;23.192;2023-10-31T07:25:16;92411.69;;;16.42;40.76
64602;BME280;68371;42.630;23.192;2023-10-31T07:27:43;92412.13;;;16.51;40.63
64602;BME280;68371;42.630;23.192;2023-10-31T07:30:10;92415.59;;;16.62;39.00
64602;BME280;68371;42.630;23.192;2023-10-31T07:32:38;92429.69;;;16.77;40.47
64602;BME280;68371;42.630;23.192;2023-10-31T07:35:06;92405.78;;;16.74;39.72
64602;BME280;68371;42.630;23.192;2023-10-31T07:37:32;92420.97;;;16.77;39.47
64602;BME280;68371;42.630;23.192;2023-10-31T07:39:59;92411.97;;;16.92;39.64
64602;BME280;68371;42.630;23.192;2023-10-31T07:42:26;92419.53;;;16.90;40.51
64602;BME280;68371;42.630;23.192;2023-10-31T07:44:53;92413.88;;;16.95;39.40
64602;BME280;68371;42.630;23.192;2023-10-31T07:47:19;92401.75;;;16.98;39.26
64602;BME280;68371;42.630;23.192;2023-10-31T07:49:48;92406.72;;;17.10;38.80
64602;BME280;68371;42.630;23.192;2023-10-31T07:52:14;92408.25;;;17.11;40.08
64602;BME280;68371;42.630;23.192;2023-10-31T07:54:41;92416.94;;;17.08;41.22
64602;BME280;68371;42.630;23.192;2023-10-31T07:57:08;92383.22;;;17.19;40.50
64602;BME280;68371;42.630;23.192;2023-10-31T07:59:34;92390.06;;;17.24;40.31
64602;BME280;68371;42.630;23.192;2023-10-31T08:02:01;92397.66;;;17.26;40.85
64602;BME280;68371;42.630;23.192;2023-10-31T08:04:28;92396.16;;;17.32;39.41
64602;BME280;68371;42.630;23.192;2023-10-31T08:06:57;92406.75;;;17.39;40.48
64602;BME280;68371;42.630;23.192;2023-10-31T08:09:24;92397.28;;;17.45;40.52
64602;BME280;68371;42.630;23.192;2023-10-31T08:11:51;92399.59;;;17.54;40.17
64602;BME280;68371;42.630;23.192;2023-10-31T08:14:17;92405.66;;;17.65;40.69
64602;BME280;68371;42.630;23.192;2023-10-31T08:16:44;92414.38;;;17.58;42.51
64602;BME280;68371;42.630;23.192;2023-10-31T08:19:11;92408.31;;;17.69;42.35
64602;BME280;68371;42.630;23.192;2023-10-31T08:21:38;92402.25;;;17.72;41.18
64602;BME280;68371;42.630;23.192;2023-10-31T08:24:07;92395.41;;;17.81;40.72
64602;BME280;68371;42.630;23.192;2023-10-31T08:26:34;92392.78;;;17.74;39.32
64602;BME280;68371;42.630;23.192;2023-10-31T08:29:00;92387.09;;;17.87;39.17
64602;BME280;68371;42.630;23.192;2023-10-31T08:31:28;92385.53;;;17.82;37.93
64602;BME280;68371;42.630;23.192;2023-10-31T08:33:55;92373.41;;;17.88;37.70
64602;BME280;68371;42.630;23.192;2023-10-31T08:36:21;92377.97;;;17.91;36.38
64602;BME280;68371;42.630;23.192;2023-10-31T08:38:48;92377.59;;;18.04;36.65
64602;BME280;68371;42.630;23.192;2023-10-31T08:41:16;92364.28;;;18.00;35.59
64602;BME280;68371;42.630;23.192;2023-10-31T08:43:45;92357.06;;;18.08;36.12
64602;BME280;68371;42.630;23.192;2023-10-31T08:46:12;92354.00;;;18.20;34.66
64602;BME280;68371;42.630;23.192;2023-10-31T08:48:39;92336.94;;;18.17;35.57
64602;BME280;68371;42.630;23.192;2023-10-31T08:51:05;92350.56;;;18.34;34.96
64602;BME280;68371;42.630;23.192;2023-10-31T08:53:32;92335.34;;;18.38;35.29
64602;BME280;68371;42.630;23.192;2023-10-31T08:55:59;92331.53;;;18.42;33.63
64602;BME280;68371;42.630;23.192;2023-10-31T08:58:28;92275.41;;;18.15;33.42
64602;BME280;68371;42.630;23.192;2023-10-31T09:00:55;92330.38;;;18.51;32.71
64602;BME280;68371;42.630;23.192;2023-10-31T09:03:22;92328.47;;;18.51;33.09
64602;BME280;68371;42.630;23.192;2023-10-31T09:05:48;92321.56;;;18.68;32.12
64602;BME280;68371;42.630;23.192;2023-10-31T09:08:15;92325.34;;;18.67;32.53
64602;BME280;68371;42.630;23.192;2023-10-31T09:10:43;92313.16;;;18.77;31.71
64602;BME280;68371;42.630;23.192;2023-10-31T09:13:11;92313.53;;;18.86;32.93
64602;BME280;68371;42.630;23.192;2023-10-31T09:15:40;92317.75;;;18.80;31.53
64602;BME280;68371;42.630;23.192;2023-10-31T09:18:06;92320.75;;;18.82;32.14
64602;BME280;68371;42.630;23.192;2023-10-31T09:20:33;92278.94;;;18.75;32.52
64602;BME280;68371;42.630;23.192;2023-10-31T09:23:00;92304.28;;;19.01;33.43
64602;BME280;68371;42.630;23.192;2023-10-31T09:25:27;92298.84;;;19.19;31.25
64602;BME280;68371;42.630;23.192;2023-10-31T09:27:55;92304.50;;;19.32;31.29
64602;BME280;68371;42.630;23.192;2023-10-31T09:30:24;92294.13;;;19.41;30.46
64602;BME280;68371;42.630;23.192;2023-10-31T09:32:53;92292.19;;;19.46;30.48
64602;BME280;68371;42.630;23.192;2023-10-31T09:35:20;92287.22;;;19.48;31.21
64602;BME280;68371;42.630;23.192;2023-10-31T09:37:46;92277.63;;;19.61;31.40
64602;BME280;68371;42.630;23.192;2023-10-31T09:40:15;92283.25;;;19.67;29.57
64602;BME280;68371;42.630;23.192;2023-10-31T09:42:41;92269.94;;;19.67;30.54
64602;BME280;68371;42.630;23.192;2023-10-31T09:45:09;92275.56;;;19.79;30.96
64602;BME280;68371;42.630;23.192;2023-10-31T09:47:36;92221.19;;;19.70;30.31
64602;BME280;68371;42.630;23.192;2023-10-31T09:50:05;92254.81;;;19.98;30.85
64602;BME280;68371;42.630;23.192;2023-10-31T09:52:33;92251.25;;;20.12;28.31
64602;BME280;68371;42.630;23.192;2023-10-31T09:55:01;92250.38;;;20.22;29.16
64602;BME280;68371;42.630;23.192;2023-10-31T09:57:28;92237.53;;;20.13;28.37
64602;BME280;68371;42.630;23.192;2023-10-31T09:59:55;92231.94;;;20.31;28.70
64602;BME280;68371;42.630;23.192;2023-10-31T10:02:21;92238.34;;;20.37;27.56
64602;BME280;68371;42.630;23.192;2023-10-31T10:04:48;92220.72;;;20.47;27.97
64602;BME280;68371;42.630;23.192;2023-10-31T10:07:17;92218.72;;;20.55;28.19
64602;BME280;68371;42.630;23.192;2023-10-31T10:09:45;92212.50;;;20.65;29.46
64602;BME280;68371;42.630;23.192;2023-10-31T10:12:13;92216.91;;;20.48;29.16
64602;BME280;68371;42.630;23.192;2023-10-31T10:14:40;92200.06;;;20.51;29.89
64602;BME280;68371;42.630;23.192;2023-10-31T10:17:14;92186.91;;;20.37;29.63
64602;BME280;68371;42.630;23.192;2023-10-31T10:19:41;92194.84;;;20.44;29.21
64602;BME280;68371;42.630;23.192;2023-10-31T10:22:08;92203.59;;;20.45;27.12
64602;BME280;68371;42.630;23.192;2023-10-31T10:24:39;92201.31;;;20.43;28.76
64602;BME280;68371;42.630;23.192;2023-10-31T10:27:06;92199.94;;;20.31;28.45
64602;BME280;68371;42.630;23.192;2023-10-31T10:29:33;92205.59;;;20.37;27.72
64602;BME280;68371;42.630;23.192;2023-10-31T10:32:00;92195.25;;;20.42;27.31
64602;BME280;68371;42.630;23.192;2023-10-31T10:34:27;92195.03;;;20.57;25.44
64602;BME280;68371;42.630;23.192;2023-10-31T10:36:55;92180.06;;;20.67;25.87
64602;BME280;68371;42.630;23.192;2023-10-31T10:39:23;92174.91;;;20.79;26.72
64602;BME280;68371;42.630;23.192;2023-10-31T10:41:54;92167.44;;;20.94;25.35
64602;BME280;68371;42.630;23.192;2023-10-31T10:44:30;92146.59;;;21.33;20.41
64602;BME280;68371;42.630;23.192;2023-10-31T10:46:58;92152.16;;;21.42;18.88
64602;BME280;68371;42.630;23.192;2023-10-31T10:49:28;92142.47;;;21.52;19.00
64602;BME280;68371;42.630;23.192;2023-10-31T10:52:04;92136.44;;;21.48;20.60
64602;BME280;68371;42.630;23.192;2023-10-31T10:54:37;92143.47;;;21.62;19.65
64602;BME280;68371;42.630;23.192;2023-10-31T10:57:14;92148.13;;;21.57;20.54
64602;BME280;68371;42.630;23.192;2023-10-31T10:59:42;92155.00;;;21.55;21.58
64602;BME280;68371;42.630;23.192;2023-10-31T11:02:11;92126.72;;;21.57;22.56
64602;BME280;68371;42.630;23.192;2023-10-31T11:04:41;92136.47;;;21.68;21.37
64602;BME280;68371;42.630;23.192;2023-10-31T11:07:08;92133.78;;;21.48;17.74
64602;BME280;68371;42.630;23.192;2023-10-31T11:09:35;92132.69;;;21.45;18.53
64602;BME280;68371;42.630;23.192;2023-10-31T11:12:05;92131.91;;;21.45;23.22
64602;BME280;68371;42.630;23.192;2023-10-31T11:14:34;92128.53;;;21.40;25.17
64602;BME280;68371;42.630;23.192;2023-10-31T11:17:06;92126.06;;;21.30;25.04
64602;BME280;68371;42.630;23.192;2023-10-31T11:19:37;92129.19;;;21.25;26.12
64602;BME280;68371;42.630;23.192;2023-10-31T11:22:05;92127.53;;;21.11;25.67
64602;BME280;68371;42.630;23.192;2023-10-31T11:24:33;92108.44;;;20.89;26.34
64602;BME280;68371;42.630;23.192;2023-10-31T11:27:02;92100.81;;;20.87;26.07
64602;BME280;68371;42.630;23.192;2023-10-31T11:29:30;92099.19;;;20.93;26.98
64602;BME280;68371;42.630;23.192;2023-10-31T11:31:58;92098.22;;;20.84;28.54
64602;BME280;68371;42.630;23.192;2023-10-31T11:34:26;92069.22;;;20.62;28.47
64602;BME280;68371;42.630;23.192;2023-10-31T11:36:53;92079.66;;;20.76;27.79
64602;BME280;68371;42.630;23.192;2023-10-31T11:39:21;92060.72;;;20.67;28.94
64602;BME280;68371;42.630;23.192;2023-10-31T11:41:54;92064.22;;;20.64;27.91
64602;BME280;68371;42.630;23.192;2023-10-31T11:44:22;92082.25;;;20.80;28.98
64602;BME280;68371;42.630;23.192;2023-10-31T11:46:50;92066.31;;;20.76;27.88
64602;BME280;68371;42.630;23.192;2023-10-31T11:49:45;92060.19;;;20.76;28.56
64602;BME280;68371;42.630;23.192;2023-10-31T11:52:14;92054.41;;;20.81;27.35
64602;BME280;68371;42.630;23.192;2023-10-31T11:54:41;92043.25;;;20.86;27.31
64602;BME280;68371;42.630;23.192;2023-10-31T11:57:08;92054.75;;;20.83;25.02
64602;BME280;68371;42.630;23.192;2023-10-31T11:59:36;92048.59;;;20.86;26.88
64602;BME280;68371;42.630;23.192;2023-10-31T12:02:12;92036.88;;;20.80;26.65
64602;BME280;68371;42.630;23.192;2023-10-31T12:04:41;92038.44;;;20.77;27.76
64602;BME280;68371;42.630;23.192;2023-10-31T12:07:08;92047.34;;;20.71;27.46
64602;BME280;68371;42.630;23.192;2023-10-31T12:09:45;92044.88;;;20.80;26.89
64602;BME280;68371;42.630;23.192;2023-10-31T12:12:12;92057.97;;;20.94;28.40
64602;BME280;68371;42.630;23.192;2023-10-31T12:14:39;92048.84;;;21.15;28.93
64602;BME280;68371;42.630;23.192;2023-10-31T12:17:07;92045.56;;;21.28;26.95
64602;BME280;68371;42.630;23.192;2023-10-31T12:19:35;92034.03;;;21.31;26.78
64602;BME280;68371;42.630;23.192;2023-10-31T12:22:12;92039.34;;;21.54;26.63
64602;BME280;68371;42.630;23.192;2023-10-31T12:24:38;91993.50;;;21.16;25.74
64602;BME280;68371;42.630;23.192;2023-10-31T12:27:05;92022.28;;;21.28;26.40
64602;BME280;68371;42.630;23.192;2023-10-31T12:29:32;92011.91;;;21.10;26.03
64602;BME280;68371;42.630;23.192;2023-10-31T12:31:59;92019.81;;;21.17;24.09
64602;BME280;68371;42.630;23.192;2023-10-31T12:34:25;92018.22;;;21.20;25.69
64602;BME280;68371;42.630;23.192;2023-10-31T12:36:53;92004.41;;;21.25;26.39
64602;BME280;68371;42.630;23.192;2023-10-31T12:39:22;92002.16;;;21.24;27.63
64602;BME280;68371;42.630;23.192;2023-10-31T12:41:51;92014.75;;;21.23;28.31
64602;BME280;68371;42.630;23.192;2023-10-31T12:44:23;92011.22;;;21.06;28.39
64602;BME280;68371;42.630;23.192;2023-10-31T12:46:50;92030.00;;;21.03;28.66
64602;BME280;68371;42.630;23.192;2023-10-31T12:49:18;92023.91;;;21.02;29.52
64602;BME280;68371;42.630;23.192;2023-10-31T12:51:58;92023.69;;;20.93;28.01
64602;BME280;68371;42.630;23.192;2023-10-31T12:54:30;92034.72;;;20.95;29.17